sensor_id;sensor_type;location;lat;lon;timestamp;P1;durP1;ratioP1;P2;durP2;ratioP2
80836;SDS011;70251;60.008;30.404;2023-08-07T00:00:50;12.93;;;9.77;;
80836;SDS011;70251;60.008;30.404;2023-08-07T00:03:16;20.60;;;8.60;;
80836;SDS011;70251;60.008;30.404;2023-08-07T00:05:50;13.85;;;9.02;;
80836;SDS011;70251;60.008;30.404;2023-08-07T00:08:17;11.77;;;9.60;;
80836;SDS011;70251;60.008;30.404;2023-08-07T00:10:43;12.52;;;10.25;;
80836;SDS011;70251;60.008;30.404;2023-08-07T00:13:08;11.73;;;8.40;;
80836;SDS011;70251;60.008;30.404;2023-08-07T00:15:34;11.23;;;8.05;;
80836;SDS011;70251;60.008;30.404;2023-08-07T00:18:02;10.85;;;7.88;;
80836;SDS011;70251;60.008;30.404;2023-08-07T00:20:28;13.10;;;8.33;;
80836;SDS011;70251;60.008;30.404;2023-08-07T00:22:53;11.03;;;7.80;;
80836;SDS011;70251;60.008;30.404;2023-08-07T00:25:19;11.13;;;7.88;;
80836;SDS011;70251;60.008;30.404;2023-08-07T00:27:45;9.20;;;6.87;;
80836;SDS011;70251;60.008;30.404;2023-08-07T00:30:11;10.90;;;7.97;;
80836;SDS011;70251;60.008;30.404;2023-08-07T00:32:37;10.10;;;7.37;;
80836;SDS011;70251;60.008;30.404;2023-08-07T00:35:02;11.55;;;8.45;;
80836;SDS011;70251;60.008;30.404;2023-08-07T00:37:30;10.43;;;6.70;;
80836;SDS011;70251;60.008;30.404;2023-08-07T00:39:55;11.93;;;7.93;;
80836;SDS011;70251;60.008;30.404;2023-08-07T00:42:21;13.02;;;8.35;;
80836;SDS011;70251;60.008;30.404;2023-08-07T00:44:46;10.97;;;7.50;;
80836;SDS011;70251;60.008;30.404;2023-08-07T00:47:12;10.40;;;6.60;;
80836;SDS011;70251;60.008;30.404;2023-08-07T00:49:37;9.32;;;6.70;;
80836;SDS011;70251;60.008;30.404;2023-08-07T00:52:04;12.20;;;7.65;;
80836;SDS011;70251;60.008;30.404;2023-08-07T00:54:30;10.53;;;6.60;;
80836;SDS011;70251;60.008;30.404;2023-08-07T00:56:58;10.95;;;6.82;;
80836;SDS011;70251;60.008;30.404;2023-08-07T00:59:35;12.45;;;7.53;;
80836;SDS011;70251;60.008;30.404;2023-08-07T01:02:00;12.38;;;7.35;;
80836;SDS011;70251;60.008;30.404;2023-08-07T01:04:27;10.53;;;6.83;;
80836;SDS011;70251;60.008;30.404;2023-08-07T01:06:53;9.30;;;6.82;;
80836;SDS011;70251;60.008;30.404;2023-08-07T01:09:19;10.93;;;6.88;;
80836;SDS011;70251;60.008;30.404;2023-08-07T01:11:48;10.57;;;7.50;;
80836;SDS011;70251;60.008;30.404;2023-08-07T01:17:13;10.38;;;7.97;;
80836;SDS011;70251;60.008;30.404;2023-08-07T01:19:40;10.73;;;8.10;;
80836;SDS011;70251;60.008;30.404;2023-08-07T01:22:13;10.88;;;7.80;;
80836;SDS011;70251;60.008;30.404;2023-08-07T01:24:44;10.25;;;6.82;;
80836;SDS011;70251;60.008;30.404;2023-08-07T01:29:48;11.77;;;6.72;;
80836;SDS011;70251;60.008;30.404;2023-08-07T01:32:17;10.87;;;7.20;;
80836;SDS011;70251;60.008;30.404;2023-08-07T01:34:52;9.82;;;7.32;;
80836;SDS011;70251;60.008;30.404;2023-08-07T01:37:20;9.88;;;7.15;;
80836;SDS011;70251;60.008;30.404;2023-08-07T01:39:48;10.02;;;7.50;;
80836;SDS011;70251;60.008;30.404;2023-08-07T01:42:16;10.82;;;7.63;;
80836;SDS011;70251;60.008;30.404;2023-08-07T01:44:42;10.67;;;7.63;;
80836;SDS011;70251;60.008;30.404;2023-08-07T01:47:07;9.98;;;8.00;;
80836;SDS011;70251;60.008;30.404;2023-08-07T01:49:33;11.53;;;7.50;;
80836;SDS011;70251;60.008;30.404;2023-08-07T01:51:59;9.90;;;7.20;;
80836;SDS011;70251;60.008;30.404;2023-08-07T01:54:24;11.27;;;8.02;;
80836;SDS011;70251;60.008;30.404;2023-08-07T01:56:50;10.50;;;7.37;;
80836;SDS011;70251;60.008;30.404;2023-08-07T01:59:15;12.03;;;8.23;;
80836;SDS011;70251;60.008;30.404;2023-08-07T02:01:41;11.80;;;7.88;;
80836;SDS011;70251;60.008;30.404;2023-08-07T02:04:06;11.33;;;8.13;;
80836;SDS011;70251;60.008;30.404;2023-08-07T02:06:32;10.27;;;7.87;;
80836;SDS011;70251;60.008;30.404;2023-08-07T02:08:57;10.82;;;8.43;;
80836;SDS011;70251;60.008;30.404;2023-08-07T02:11:23;9.20;;;6.50;;
80836;SDS011;70251;60.008;30.404;2023-08-07T02:13:49;10.13;;;7.32;;
80836;SDS011;70251;60.008;30.404;2023-08-07T02:16:14;9.23;;;7.43;;
80836;SDS011;70251;60.008;30.404;2023-08-07T02:18:40;10.18;;;6.93;;
80836;SDS011;70251;60.008;30.404;2023-08-07T02:21:25;11.02;;;7.80;;
80836;SDS011;70251;60.008;30.404;2023-08-07T02:23:51;10.97;;;7.57;;
80836;SDS011;70251;60.008;30.404;2023-08-07T02:26:16;9.30;;;7.30;;
80836;SDS011;70251;60.008;30.404;2023-08-07T02:28:42;14.63;;;8.20;;
80836;SDS011;70251;60.008;30.404;2023-08-07T02:31:07;10.77;;;8.00;;
80836;SDS011;70251;60.008;30.404;2023-08-07T02:33:33;12.30;;;8.40;;
80836;SDS011;70251;60.008;30.404;2023-08-07T02:35:58;10.15;;;7.70;;
80836;SDS011;70251;60.008;30.404;2023-08-07T02:38:24;10.63;;;7.50;;
80836;SDS011;70251;60.008;30.404;2023-08-07T02:40:50;10.93;;;8.50;;
80836;SDS011;70251;60.008;30.404;2023-08-07T02:43:16;14.23;;;9.00;;
80836;SDS011;70251;60.008;30.404;2023-08-07T02:45:41;12.47;;;8.03;;
80836;SDS011;70251;60.008;30.404;2023-08-07T02:48:07;16.60;;;8.57;;
80836;SDS011;70251;60.008;30.404;2023-08-07T02:50:32;12.53;;;8.33;;
80836;SDS011;70251;60.008;30.404;2023-08-07T02:52:58;10.90;;;7.93;;
80836;SDS011;70251;60.008;30.404;2023-08-07T02:55:24;11.55;;;7.97;;
80836;SDS011;70251;60.008;30.404;2023-08-07T02:57:50;11.27;;;8.40;;
80836;SDS011;70251;60.008;30.404;2023-08-07T03:00:15;12.30;;;8.48;;
80836;SDS011;70251;60.008;30.404;2023-08-07T03:02:41;10.27;;;7.73;;
80836;SDS011;70251;60.008;30.404;2023-08-07T03:05:07;12.53;;;8.23;;
80836;SDS011;70251;60.008;30.404;2023-08-07T03:07:33;10.50;;;8.03;;
80836;SDS011;70251;60.008;30.404;2023-08-07T03:09:58;10.75;;;7.40;;
80836;SDS011;70251;60.008;30.404;2023-08-07T03:12:24;10.63;;;7.87;;
80836;SDS011;70251;60.008;30.404;2023-08-07T03:14:50;10.68;;;7.55;;
80836;SDS011;70251;60.008;30.404;2023-08-07T03:17:15;9.30;;;7.07;;
80836;SDS011;70251;60.008;30.404;2023-08-07T03:19:42;12.65;;;8.13;;
80836;SDS011;70251;60.008;30.404;2023-08-07T03:22:08;11.87;;;7.63;;
80836;SDS011;70251;60.008;30.404;2023-08-07T03:24:34;10.23;;;7.63;;
80836;SDS011;70251;60.008;30.404;2023-08-07T03:26:59;11.10;;;6.37;;
80836;SDS011;70251;60.008;30.404;2023-08-07T03:29:25;10.80;;;7.43;;
80836;SDS011;70251;60.008;30.404;2023-08-07T03:31:50;12.00;;;7.00;;
80836;SDS011;70251;60.008;30.404;2023-08-07T03:34:16;11.20;;;7.53;;
80836;SDS011;70251;60.008;30.404;2023-08-07T03:36:42;12.00;;;7.87;;
80836;SDS011;70251;60.008;30.404;2023-08-07T03:39:07;10.67;;;7.13;;
80836;SDS011;70251;60.008;30.404;2023-08-07T03:41:33;11.40;;;7.50;;
80836;SDS011;70251;60.008;30.404;2023-08-07T03:43:58;11.17;;;7.40;;
80836;SDS011;70251;60.008;30.404;2023-08-07T03:46:24;11.43;;;7.80;;
80836;SDS011;70251;60.008;30.404;2023-08-07T03:48:49;9.57;;;6.63;;
80836;SDS011;70251;60.008;30.404;2023-08-07T03:51:15;11.33;;;7.60;;
80836;SDS011;70251;60.008;30.404;2023-08-07T03:53:42;12.48;;;7.40;;
80836;SDS011;70251;60.008;30.404;2023-08-07T03:56:07;10.70;;;7.43;;
80836;SDS011;70251;60.008;30.404;2023-08-07T03:58:33;9.77;;;5.73;;
80836;SDS011;70251;60.008;30.404;2023-08-07T04:00:58;11.83;;;6.90;;
80836;SDS011;70251;60.008;30.404;2023-08-07T04:03:24;10.30;;;7.25;;
80836;SDS011;70251;60.008;30.404;2023-08-07T04:05:52;9.90;;;7.07;;
80836;SDS011;70251;60.008;30.404;2023-08-07T04:08:19;8.80;;;5.25;;
80836;SDS011;70251;60.008;30.404;2023-08-07T04:10:45;12.63;;;7.38;;
80836;SDS011;70251;60.008;30.404;2023-08-07T04:13:11;11.68;;;6.35;;
80836;SDS011;70251;60.008;30.404;2023-08-07T04:15:37;10.27;;;6.43;;
80836;SDS011;70251;60.008;30.404;2023-08-07T04:18:02;10.77;;;6.53;;
80836;SDS011;70251;60.008;30.404;2023-08-07T04:20:28;9.40;;;7.00;;
80836;SDS011;70251;60.008;30.404;2023-08-07T04:22:53;11.15;;;6.82;;
80836;SDS011;70251;60.008;30.404;2023-08-07T04:25:19;9.43;;;6.60;;
80836;SDS011;70251;60.008;30.404;2023-08-07T04:27:45;7.70;;;5.70;;
80836;SDS011;70251;60.008;30.404;2023-08-07T04:30:11;9.87;;;6.47;;
80836;SDS011;70251;60.008;30.404;2023-08-07T04:32:37;10.48;;;6.93;;
80836;SDS011;70251;60.008;30.404;2023-08-07T04:35:03;9.17;;;6.40;;
80836;SDS011;70251;60.008;30.404;2023-08-07T04:37:29;12.35;;;6.97;;
80836;SDS011;70251;60.008;30.404;2023-08-07T04:39:55;10.68;;;6.03;;
80836;SDS011;70251;60.008;30.404;2023-08-07T04:42:21;15.77;;;6.60;;
80836;SDS011;70251;60.008;30.404;2023-08-07T04:44:47;9.82;;;6.72;;
80836;SDS011;70251;60.008;30.404;2023-08-07T04:47:12;12.10;;;6.63;;
80836;SDS011;70251;60.008;30.404;2023-08-07T04:49:38;11.53;;;6.70;;
80836;SDS011;70251;60.008;30.404;2023-08-07T04:52:03;13.17;;;8.00;;
80836;SDS011;70251;60.008;30.404;2023-08-07T04:54:29;9.55;;;6.18;;
80836;SDS011;70251;60.008;30.404;2023-08-07T04:56:55;11.20;;;6.60;;
80836;SDS011;70251;60.008;30.404;2023-08-07T04:59:23;10.33;;;6.70;;
80836;SDS011;70251;60.008;30.404;2023-08-07T05:01:49;9.07;;;6.60;;
80836;SDS011;70251;60.008;30.404;2023-08-07T05:04:14;9.87;;;6.60;;
80836;SDS011;70251;60.008;30.404;2023-08-07T05:06:40;10.60;;;6.93;;
80836;SDS011;70251;60.008;30.404;2023-08-07T05:09:06;11.18;;;6.95;;
80836;SDS011;70251;60.008;30.404;2023-08-07T05:11:31;10.90;;;7.03;;
80836;SDS011;70251;60.008;30.404;2023-08-07T05:13:58;11.82;;;7.00;;
80836;SDS011;70251;60.008;30.404;2023-08-07T05:16:24;10.82;;;6.72;;
80836;SDS011;70251;60.008;30.404;2023-08-07T05:18:50;12.60;;;6.43;;
80836;SDS011;70251;60.008;30.404;2023-08-07T05:21:16;10.35;;;6.70;;
80836;SDS011;70251;60.008;30.404;2023-08-07T05:23:41;12.47;;;7.00;;
80836;SDS011;70251;60.008;30.404;2023-08-07T05:26:07;10.05;;;6.32;;
80836;SDS011;70251;60.008;30.404;2023-08-07T05:28:34;11.50;;;6.68;;
80836;SDS011;70251;60.008;30.404;2023-08-07T05:31:01;11.83;;;6.23;;
80836;SDS011;70251;60.008;30.404;2023-08-07T05:33:28;12.73;;;7.05;;
80836;SDS011;70251;60.008;30.404;2023-08-07T05:35:56;10.57;;;6.93;;
80836;SDS011;70251;60.008;30.404;2023-08-07T05:38:23;11.57;;;6.95;;
80836;SDS011;70251;60.008;30.404;2023-08-07T05:40:50;12.47;;;6.87;;
80836;SDS011;70251;60.008;30.404;2023-08-07T05:43:18;9.93;;;7.03;;
80836;SDS011;70251;60.008;30.404;2023-08-07T05:45:46;9.75;;;6.13;;
80836;SDS011;70251;60.008;30.404;2023-08-07T05:48:23;12.77;;;7.00;;
80836;SDS011;70251;60.008;30.404;2023-08-07T05:50:57;11.48;;;6.60;;
80836;SDS011;70251;60.008;30.404;2023-08-07T05:53:29;9.80;;;5.63;;
80836;SDS011;70251;60.008;30.404;2023-08-07T05:55:55;9.70;;;6.65;;
80836;SDS011;70251;60.008;30.404;2023-08-07T05:58:26;10.45;;;6.35;;
80836;SDS011;70251;60.008;30.404;2023-08-07T06:00:54;10.10;;;6.22;;
80836;SDS011;70251;60.008;30.404;2023-08-07T06:03:36;10.18;;;6.47;;
80836;SDS011;70251;60.008;30.404;2023-08-07T06:06:05;13.50;;;6.37;;
80836;SDS011;70251;60.008;30.404;2023-08-07T06:08:32;11.65;;;6.70;;
80836;SDS011;70251;60.008;30.404;2023-08-07T06:11:00;10.38;;;6.43;;
80836;SDS011;70251;60.008;30.404;2023-08-07T06:13:32;11.77;;;6.35;;
80836;SDS011;70251;60.008;30.404;2023-08-07T06:16:34;9.87;;;6.03;;
80836;SDS011;70251;60.008;30.404;2023-08-07T06:19:30;9.75;;;6.03;;
80836;SDS011;70251;60.008;30.404;2023-08-07T06:22:02;8.52;;;5.93;;
80836;SDS011;70251;60.008;30.404;2023-08-07T06:24:48;11.45;;;6.63;;
80836;SDS011;70251;60.008;30.404;2023-08-07T06:27:50;12.95;;;6.28;;
80836;SDS011;70251;60.008;30.404;2023-08-07T06:32:55;14.95;;;7.40;;
80836;SDS011;70251;60.008;30.404;2023-08-07T06:35:30;10.85;;;6.85;;
80836;SDS011;70251;60.008;30.404;2023-08-07T06:38:22;13.68;;;6.60;;
80836;SDS011;70251;60.008;30.404;2023-08-07T06:44:15;10.90;;;6.63;;
80836;SDS011;70251;60.008;30.404;2023-08-07T06:46:46;10.88;;;6.20;;
80836;SDS011;70251;60.008;30.404;2023-08-07T07:52:05;9.18;;;5.97;;
80836;SDS011;70251;60.008;30.404;2023-08-07T08:11:45;9.33;;;6.17;;
80836;SDS011;70251;60.008;30.404;2023-08-07T08:18:01;8.07;;;5.57;;
80836;SDS011;70251;60.008;30.404;2023-08-07T08:20:26;10.43;;;6.13;;
80836;SDS011;70251;60.008;30.404;2023-08-07T08:25:26;11.67;;;6.17;;
80836;SDS011;70251;60.008;30.404;2023-08-07T08:27:56;8.77;;;5.72;;
80836;SDS011;70251;60.008;30.404;2023-08-07T08:30:44;9.35;;;5.82;;
80836;SDS011;70251;60.008;30.404;2023-08-07T08:48:49;9.20;;;5.88;;
80836;SDS011;70251;60.008;30.404;2023-08-07T08:51:21;10.23;;;5.90;;
80836;SDS011;70251;60.008;30.404;2023-08-07T08:53:48;9.70;;;6.32;;
80836;SDS011;70251;60.008;30.404;2023-08-07T08:56:16;10.93;;;6.78;;
80836;SDS011;70251;60.008;30.404;2023-08-07T08:58:47;8.50;;;6.07;;
80836;SDS011;70251;60.008;30.404;2023-08-07T09:01:15;10.10;;;6.70;;
80836;SDS011;70251;60.008;30.404;2023-08-07T09:03:47;10.13;;;5.90;;
80836;SDS011;70251;60.008;30.404;2023-08-07T09:06:14;9.75;;;6.05;;
80836;SDS011;70251;60.008;30.404;2023-08-07T09:08:40;9.00;;;6.40;;
80836;SDS011;70251;60.008;30.404;2023-08-07T09:11:20;9.55;;;6.40;;
80836;SDS011;70251;60.008;30.404;2023-08-07T09:13:47;9.57;;;6.37;;
80836;SDS011;70251;60.008;30.404;2023-08-07T09:16:15;8.52;;;5.97;;
80836;SDS011;70251;60.008;30.404;2023-08-07T09:18:42;9.52;;;6.65;;
80836;SDS011;70251;60.008;30.404;2023-08-07T09:21:09;8.32;;;5.68;;
80836;SDS011;70251;60.008;30.404;2023-08-07T09:23:35;9.20;;;7.00;;
80836;SDS011;70251;60.008;30.404;2023-08-07T09:26:03;8.60;;;5.83;;
80836;SDS011;70251;60.008;30.404;2023-08-07T09:28:31;12.02;;;6.68;;
80836;SDS011;70251;60.008;30.404;2023-08-07T09:31:05;10.20;;;6.13;;
80836;SDS011;70251;60.008;30.404;2023-08-07T09:33:33;11.45;;;6.15;;
80836;SDS011;70251;60.008;30.404;2023-08-07T09:36:02;8.80;;;6.05;;
80836;SDS011;70251;60.008;30.404;2023-08-07T09:38:30;8.20;;;6.33;;
80836;SDS011;70251;60.008;30.404;2023-08-07T09:41:02;9.07;;;6.57;;
80836;SDS011;70251;60.008;30.404;2023-08-07T09:43:43;7.03;;;5.80;;
80836;SDS011;70251;60.008;30.404;2023-08-07T09:46:09;8.68;;;6.10;;
80836;SDS011;70251;60.008;30.404;2023-08-07T09:48:39;9.65;;;6.20;;
80836;SDS011;70251;60.008;30.404;2023-08-07T09:51:06;10.23;;;6.57;;
80836;SDS011;70251;60.008;30.404;2023-08-07T09:53:32;8.45;;;5.95;;
80836;SDS011;70251;60.008;30.404;2023-08-07T09:55:59;8.95;;;6.10;;
80836;SDS011;70251;60.008;30.404;2023-08-07T09:58:27;14.18;;;6.78;;
80836;SDS011;70251;60.008;30.404;2023-08-07T10:01:04;9.10;;;6.23;;
80836;SDS011;70251;60.008;30.404;2023-08-07T10:03:30;10.63;;;7.35;;
80836;SDS011;70251;60.008;30.404;2023-08-07T10:05:57;10.10;;;6.25;;
80836;SDS011;70251;60.008;30.404;2023-08-07T10:08:38;7.80;;;5.18;;
80836;SDS011;70251;60.008;30.404;2023-08-07T10:11:09;8.88;;;6.20;;
80836;SDS011;70251;60.008;30.404;2023-08-07T10:13:57;11.27;;;6.70;;
80836;SDS011;70251;60.008;30.404;2023-08-07T10:16:45;11.63;;;6.20;;
80836;SDS011;70251;60.008;30.404;2023-08-07T10:19:11;10.05;;;6.13;;
80836;SDS011;70251;60.008;30.404;2023-08-07T10:21:39;8.25;;;6.30;;
80836;SDS011;70251;60.008;30.404;2023-08-07T10:24:06;9.83;;;5.80;;
80836;SDS011;70251;60.008;30.404;2023-08-07T10:26:38;9.13;;;6.55;;
80836;SDS011;70251;60.008;30.404;2023-08-07T10:29:09;7.32;;;6.57;;
80836;SDS011;70251;60.008;30.404;2023-08-07T10:31:48;7.03;;;6.05;;
80836;SDS011;70251;60.008;30.404;2023-08-07T10:34:33;9.05;;;6.22;;
80836;SDS011;70251;60.008;30.404;2023-08-07T10:40:06;9.40;;;6.75;;
80836;SDS011;70251;60.008;30.404;2023-08-07T10:42:51;8.80;;;6.38;;
80836;SDS011;70251;60.008;30.404;2023-08-07T10:45:18;8.15;;;6.00;;
80836;SDS011;70251;60.008;30.404;2023-08-07T10:48:30;8.98;;;6.32;;
80836;SDS011;70251;60.008;30.404;2023-08-07T10:50:51;6.57;;;5.13;;
80836;SDS011;70251;60.008;30.404;2023-08-07T10:53:36;9.13;;;5.78;;
80836;SDS011;70251;60.008;30.404;2023-08-07T10:56:10;10.02;;;5.50;;
80836;SDS011;70251;60.008;30.404;2023-08-07T10:58:57;12.93;;;5.97;;
80836;SDS011;70251;60.008;30.404;2023-08-07T11:03:56;7.10;;;5.27;;
80836;SDS011;70251;60.008;30.404;2023-08-07T11:06:23;7.63;;;5.68;;
80836;SDS011;70251;60.008;30.404;2023-08-07T11:09:00;8.73;;;5.47;;
80836;SDS011;70251;60.008;30.404;2023-08-07T11:11:51;10.75;;;5.68;;
80836;SDS011;70251;60.008;30.404;2023-08-07T11:14:17;8.13;;;5.97;;
80836;SDS011;70251;60.008;30.404;2023-08-07T11:16:45;6.83;;;5.10;;
80836;SDS011;70251;60.008;30.404;2023-08-07T11:19:13;9.27;;;5.60;;
80836;SDS011;70251;60.008;30.404;2023-08-07T11:21:41;8.80;;;5.55;;
80836;SDS011;70251;60.008;30.404;2023-08-07T11:24:07;8.10;;;5.45;;
80836;SDS011;70251;60.008;30.404;2023-08-07T11:26:33;8.43;;;5.60;;
80836;SDS011;70251;60.008;30.404;2023-08-07T11:29:00;10.25;;;5.90;;
80836;SDS011;70251;60.008;30.404;2023-08-07T11:31:26;6.87;;;5.67;;
80836;SDS011;70251;60.008;30.404;2023-08-07T11:33:54;9.33;;;6.50;;
80836;SDS011;70251;60.008;30.404;2023-08-07T11:36:22;7.72;;;5.65;;
80836;SDS011;70251;60.008;30.404;2023-08-07T11:38:53;8.27;;;5.45;;
80836;SDS011;70251;60.008;30.404;2023-08-07T11:41:33;7.43;;;5.85;;
80836;SDS011;70251;60.008;30.404;2023-08-07T11:44:09;7.13;;;6.43;;
80836;SDS011;70251;60.008;30.404;2023-08-07T11:46:35;9.20;;;5.93;;
80836;SDS011;70251;60.008;30.404;2023-08-07T11:49:01;7.90;;;5.97;;
80836;SDS011;70251;60.008;30.404;2023-08-07T11:54:49;7.18;;;6.07;;
80836;SDS011;70251;60.008;30.404;2023-08-07T11:57:21;10.45;;;6.15;;
80836;SDS011;70251;60.008;30.404;2023-08-07T12:00:08;9.23;;;6.30;;
80836;SDS011;70251;60.008;30.404;2023-08-07T12:02:57;10.48;;;6.25;;
80836;SDS011;70251;60.008;30.404;2023-08-07T12:05:22;9.20;;;5.93;;
80836;SDS011;70251;60.008;30.404;2023-08-07T12:07:48;7.33;;;6.33;;
80836;SDS011;70251;60.008;30.404;2023-08-07T12:10:18;8.20;;;5.95;;
80836;SDS011;70251;60.008;30.404;2023-08-07T12:16:09;7.85;;;5.75;;
80836;SDS011;70251;60.008;30.404;2023-08-07T12:18:35;10.23;;;5.60;;
80836;SDS011;70251;60.008;30.404;2023-08-07T12:21:04;9.57;;;7.07;;
80836;SDS011;70251;60.008;30.404;2023-08-07T12:23:35;7.75;;;6.75;;
80836;SDS011;70251;60.008;30.404;2023-08-07T12:26:03;7.32;;;6.63;;
80836;SDS011;70251;60.008;30.404;2023-08-07T12:28:34;8.17;;;5.47;;
80836;SDS011;70251;60.008;30.404;2023-08-07T12:31:02;7.70;;;6.47;;
80836;SDS011;70251;60.008;30.404;2023-08-07T12:33:47;9.07;;;6.40;;
80836;SDS011;70251;60.008;30.404;2023-08-07T12:36:13;8.40;;;5.70;;
80836;SDS011;70251;60.008;30.404;2023-08-07T12:38:40;7.22;;;6.30;;
80836;SDS011;70251;60.008;30.404;2023-08-07T12:41:08;8.43;;;6.77;;
80836;SDS011;70251;60.008;30.404;2023-08-07T12:43:34;6.90;;;5.45;;
80836;SDS011;70251;60.008;30.404;2023-08-07T12:46:00;10.13;;;6.95;;
80836;SDS011;70251;60.008;30.404;2023-08-07T13:01:36;7.55;;;6.75;;
80836;SDS011;70251;60.008;30.404;2023-08-07T13:04:07;10.07;;;6.47;;
80836;SDS011;70251;60.008;30.404;2023-08-07T13:06:34;12.80;;;7.30;;
80836;SDS011;70251;60.008;30.404;2023-08-07T13:08:59;9.40;;;6.50;;
80836;SDS011;70251;60.008;30.404;2023-08-07T13:14:01;8.75;;;7.32;;
80836;SDS011;70251;60.008;30.404;2023-08-07T13:16:31;9.63;;;6.35;;
80836;SDS011;70251;60.008;30.404;2023-08-07T13:18:57;6.73;;;6.10;;
80836;SDS011;70251;60.008;30.404;2023-08-07T13:21:22;6.60;;;5.88;;
80836;SDS011;70251;60.008;30.404;2023-08-07T13:23:53;8.13;;;7.33;;
80836;SDS011;70251;60.008;30.404;2023-08-07T13:26:20;7.68;;;6.18;;
80836;SDS011;70251;60.008;30.404;2023-08-07T13:28:47;7.25;;;6.50;;
80836;SDS011;70251;60.008;30.404;2023-08-07T13:31:13;8.52;;;6.72;;
80836;SDS011;70251;60.008;30.404;2023-08-07T13:33:44;12.73;;;7.93;;
80836;SDS011;70251;60.008;30.404;2023-08-07T13:36:10;7.60;;;6.45;;
80836;SDS011;70251;60.008;30.404;2023-08-07T13:38:35;7.32;;;5.97;;
80836;SDS011;70251;60.008;30.404;2023-08-07T13:41:02;8.57;;;7.67;;
80836;SDS011;70251;60.008;30.404;2023-08-07T13:43:27;8.27;;;7.25;;
80836;SDS011;70251;60.008;30.404;2023-08-07T13:45:53;8.55;;;6.68;;
80836;SDS011;70251;60.008;30.404;2023-08-07T13:48:21;8.27;;;7.43;;
80836;SDS011;70251;60.008;30.404;2023-08-07T13:50:51;9.23;;;7.35;;
80836;SDS011;70251;60.008;30.404;2023-08-07T13:53:18;9.48;;;6.18;;
80836;SDS011;70251;60.008;30.404;2023-08-07T13:55:45;8.65;;;6.93;;
80836;SDS011;70251;60.008;30.404;2023-08-07T14:00:53;10.77;;;7.67;;
80836;SDS011;70251;60.008;30.404;2023-08-07T14:03:19;7.35;;;6.65;;
80836;SDS011;70251;60.008;30.404;2023-08-07T14:05:45;7.20;;;6.30;;
80836;SDS011;70251;60.008;30.404;2023-08-07T14:08:12;9.27;;;6.88;;
80836;SDS011;70251;60.008;30.404;2023-08-07T14:10:38;8.47;;;6.37;;
80836;SDS011;70251;60.008;30.404;2023-08-07T14:13:24;8.35;;;5.68;;
80836;SDS011;70251;60.008;30.404;2023-08-07T14:15:56;7.50;;;6.65;;
80836;SDS011;70251;60.008;30.404;2023-08-07T14:18:23;10.90;;;5.90;;
80836;SDS011;70251;60.008;30.404;2023-08-07T14:21:14;9.30;;;6.28;;
80836;SDS011;70251;60.008;30.404;2023-08-07T14:23:41;8.93;;;5.95;;
80836;SDS011;70251;60.008;30.404;2023-08-07T14:26:08;7.57;;;5.63;;
80836;SDS011;70251;60.008;30.404;2023-08-07T14:28:33;12.83;;;5.83;;
80836;SDS011;70251;60.008;30.404;2023-08-07T14:30:59;8.10;;;5.97;;
80836;SDS011;70251;60.008;30.404;2023-08-07T14:33:25;8.23;;;6.13;;
80836;SDS011;70251;60.008;30.404;2023-08-07T14:35:52;7.55;;;5.50;;
80836;SDS011;70251;60.008;30.404;2023-08-07T14:38:18;8.43;;;7.30;;
80836;SDS011;70251;60.008;30.404;2023-08-07T14:40:43;8.95;;;7.05;;
80836;SDS011;70251;60.008;30.404;2023-08-07T14:43:11;9.25;;;6.35;;
80836;SDS011;70251;60.008;30.404;2023-08-07T14:45:38;8.47;;;6.47;;
80836;SDS011;70251;60.008;30.404;2023-08-07T14:48:05;7.50;;;6.03;;
80836;SDS011;70251;60.008;30.404;2023-08-07T14:50:32;9.15;;;5.90;;
80836;SDS011;70251;60.008;30.404;2023-08-07T14:52:58;7.27;;;5.70;;
80836;SDS011;70251;60.008;30.404;2023-08-07T14:55:25;9.38;;;5.53;;
80836;SDS011;70251;60.008;30.404;2023-08-07T14:57:50;7.43;;;5.60;;
80836;SDS011;70251;60.008;30.404;2023-08-07T15:00:18;9.57;;;5.93;;
80836;SDS011;70251;60.008;30.404;2023-08-07T15:02:45;6.50;;;5.65;;
80836;SDS011;70251;60.008;30.404;2023-08-07T15:05:11;7.97;;;5.25;;
80836;SDS011;70251;60.008;30.404;2023-08-07T15:07:38;7.95;;;5.25;;
80836;SDS011;70251;60.008;30.404;2023-08-07T15:10:04;8.47;;;6.97;;
80836;SDS011;70251;60.008;30.404;2023-08-07T15:12:30;10.00;;;5.97;;
80836;SDS011;70251;60.008;30.404;2023-08-07T15:14:56;6.67;;;5.97;;
80836;SDS011;70251;60.008;30.404;2023-08-07T15:17:47;7.70;;;6.40;;
80836;SDS011;70251;60.008;30.404;2023-08-07T15:20:13;11.80;;;6.35;;
80836;SDS011;70251;60.008;30.404;2023-08-07T15:22:39;6.20;;;5.60;;
80836;SDS011;70251;60.008;30.404;2023-08-07T15:25:04;8.90;;;6.20;;
80836;SDS011;70251;60.008;30.404;2023-08-07T15:27:31;7.63;;;6.20;;
80836;SDS011;70251;60.008;30.404;2023-08-07T15:29:56;8.50;;;6.37;;
80836;SDS011;70251;60.008;30.404;2023-08-07T15:32:22;9.05;;;5.70;;
80836;SDS011;70251;60.008;30.404;2023-08-07T15:34:47;9.57;;;5.80;;
80836;SDS011;70251;60.008;30.404;2023-08-07T15:37:13;13.48;;;5.38;;
80836;SDS011;70251;60.008;30.404;2023-08-07T15:39:39;10.00;;;5.67;;
80836;SDS011;70251;60.008;30.404;2023-08-07T15:42:05;7.43;;;5.88;;
80836;SDS011;70251;60.008;30.404;2023-08-07T15:44:31;8.98;;;5.60;;
80836;SDS011;70251;60.008;30.404;2023-08-07T15:46:57;8.97;;;5.77;;
80836;SDS011;70251;60.008;30.404;2023-08-07T15:49:22;9.43;;;5.32;;
80836;SDS011;70251;60.008;30.404;2023-08-07T15:51:48;6.97;;;5.67;;
80836;SDS011;70251;60.008;30.404;2023-08-07T15:54:14;10.40;;;5.68;;
80836;SDS011;70251;60.008;30.404;2023-08-07T15:56:39;6.00;;;5.40;;
80836;SDS011;70251;60.008;30.404;2023-08-07T15:59:05;7.00;;;5.47;;
80836;SDS011;70251;60.008;30.404;2023-08-07T16:01:30;7.72;;;5.05;;
80836;SDS011;70251;60.008;30.404;2023-08-07T16:03:56;10.23;;;5.70;;
80836;SDS011;70251;60.008;30.404;2023-08-07T16:06:23;11.10;;;5.15;;
80836;SDS011;70251;60.008;30.404;2023-08-07T16:08:50;6.93;;;5.43;;
80836;SDS011;70251;60.008;30.404;2023-08-07T16:11:19;11.18;;;5.00;;
80836;SDS011;70251;60.008;30.404;2023-08-07T16:13:45;8.67;;;5.90;;
80836;SDS011;70251;60.008;30.404;2023-08-07T16:16:11;6.95;;;4.97;;
80836;SDS011;70251;60.008;30.404;2023-08-07T16:18:36;7.53;;;5.20;;
80836;SDS011;70251;60.008;30.404;2023-08-07T16:21:02;7.90;;;5.45;;
80836;SDS011;70251;60.008;30.404;2023-08-07T16:23:27;6.43;;;5.00;;
80836;SDS011;70251;60.008;30.404;2023-08-07T16:25:53;7.37;;;5.40;;
80836;SDS011;70251;60.008;30.404;2023-08-07T16:28:18;6.70;;;4.87;;
80836;SDS011;70251;60.008;30.404;2023-08-07T16:30:45;5.82;;;4.55;;
80836;SDS011;70251;60.008;30.404;2023-08-07T16:33:11;6.88;;;4.70;;
80836;SDS011;70251;60.008;30.404;2023-08-07T16:35:36;6.53;;;4.40;;
80836;SDS011;70251;60.008;30.404;2023-08-07T16:38:02;7.87;;;4.47;;
80836;SDS011;70251;60.008;30.404;2023-08-07T16:40:28;7.13;;;4.30;;
80836;SDS011;70251;60.008;30.404;2023-08-07T16:42:54;6.95;;;4.50;;
80836;SDS011;70251;60.008;30.404;2023-08-07T16:45:19;8.50;;;4.30;;
80836;SDS011;70251;60.008;30.404;2023-08-07T16:47:46;12.27;;;5.07;;
80836;SDS011;70251;60.008;30.404;2023-08-07T16:50:12;6.50;;;4.13;;
80836;SDS011;70251;60.008;30.404;2023-08-07T16:52:37;9.37;;;5.10;;
80836;SDS011;70251;60.008;30.404;2023-08-07T16:55:03;6.35;;;4.00;;
80836;SDS011;70251;60.008;30.404;2023-08-07T16:57:30;6.40;;;4.30;;
80836;SDS011;70251;60.008;30.404;2023-08-07T16:59:55;7.65;;;4.20;;